Time;durP1;ratioP1;P1;durP2;ratioP2;P2;SDS_P1;SDS_P2;PMS_P1;PMS_P2;Temp;Humidity;BMP_temperature;BMP_pressure;BME280_temperature;BME280_humidity;BME280_pressure;Samples;Min_cycle;Max_cycle;Signal;HPM_P1;HPM_P2
2023/12/17 00:00:23;;;;;;;0.00;0.00;;;;;;;;;;1732557;28;20327;-63
2023/12/17 00:01:14;;;;;;;0.00;0.00;;;;;;;;;;1739396;28;20406;-63
2023/12/17 00:02:06;;;;;;;0.00;0.00;;;;;;;;;;1739559;28;20600;-62
2023/12/17 00:02:57;;;;;;;0.00;0.00;;;;;;;;;;1739126;28;20610;-63
2023/12/17 00:03:48;;;;;;;0.00;0.00;;;;;;;;;;1739892;28;20681;-63
2023/12/17 00:04:39;;;;;;;0.00;0.00;;;;;;;;;;1738672;28;20215;-62
2023/12/17 00:05:31;;;;;;;0.00;0.00;;;;;;;;;;1736745;28;20207;-64
2023/12/17 00:06:24;;;;;;;0.00;0.00;;;;;;;;;;1739054;28;20207;-64
2023/12/17 00:07:16;;;;;;;0.00;0.00;;;;;;;;;;1739636;28;20228;-64
2023/12/17 00:08:07;;;;;;;0.00;0.00;;;;;;;;;;1738816;28;20253;-64
2023/12/17 00:08:58;;;;;;;0.00;0.00;;;;;;;;;;1739343;28;20586;-63
2023/12/17 00:09:50;;;;;;;0.00;0.00;;;;;;;;;;1739401;28;20353;-64
2023/12/17 00:10:41;;;;;;;0.00;0.00;;;;;;;;;;1738142;28;20264;-64
2023/12/17 00:11:38;;;;;;;0.00;0.00;;;;;;;;;;1739210;28;20639;-64
2023/12/17 00:12:30;;;;;;;0.00;0.00;;;;;;;;;;1739388;28;20203;-65
2023/12/17 00:13:21;;;;;;;0.00;0.00;;;;;;;;;;1739153;28;20207;-64
2023/12/17 00:14:12;;;;;;;0.00;0.00;;;;;;;;;;1739595;28;20719;-64
2023/12/17 00:15:05;;;;;;;0.00;0.00;;;;;;;;;;1738826;28;20203;-65
2023/12/17 00:15:56;;;;;;;0.00;0.00;;;;;;;;;;1738478;28;20318;-64
2023/12/17 00:16:47;;;;;;;0.00;0.00;;;;;;;;;;1739170;28;20298;-65
2023/12/17 00:17:39;;;;;;;0.00;0.00;;;;;;;;;;1739211;28;20199;-65
2023/12/17 00:18:30;;;;;;;0.00;0.00;;;;;;;;;;1738893;28;20745;-64
2023/12/17 00:19:21;;;;;;;0.00;0.00;;;;;;;;;;1739302;28;20555;-64
2023/12/17 00:20:13;;;;;;;0.00;0.00;;;;;;;;;;1738295;28;20672;-63
2023/12/17 00:21:12;;;;;;;0.00;0.00;;;;;;;;;;1738958;28;20284;-63
2023/12/17 00:22:05;;;;;;;0.00;0.00;;;;;;;;;;1739258;28;20207;-65
2023/12/17 00:22:56;;;;;;;0.00;0.00;;;;;;;;;;1738898;28;20261;-64
2023/12/17 00:23:47;;;;;;;0.00;0.00;;;;;;;;;;1739741;28;20706;-64
2023/12/17 00:24:39;;;;;;;0.00;0.00;;;;;;;;;;1738934;28;20223;-64
2023/12/17 00:25:30;;;;;;;0.00;0.00;;;;;;;;;;1736150;28;20203;-64
2023/12/17 00:26:21;;;;;;;0.00;0.00;;;;;;;;;;1739274;28;20207;-64
2023/12/17 00:27:14;;;;;;;0.00;0.00;;;;;;;;;;1738818;28;20213;-64
2023/12/17 00:28:05;;;;;;;0.00;0.00;;;;;;;;;;1725181;28;20232;-64
2023/12/17 00:28:58;;;;;;;0.00;0.00;;;;;;;;;;1725776;28;20228;-64
2023/12/17 00:29:49;;;;;;;0.00;0.00;;;;;;;;;;1725684;28;20219;-64
2023/12/17 00:30:40;;;;;;;0.00;0.00;;;;;;;;;;1724765;28;20246;-64
2023/12/17 00:31:32;;;;;;;0.00;0.00;;;;;;;;;;1725340;28;20652;-64
2023/12/17 00:32:23;;;;;;;0.00;0.00;;;;;;;;;;1725791;28;20204;-62
2023/12/17 00:33:14;;;;;;;0.00;0.00;;;;;;;;;;1725251;28;20208;-64
2023/12/17 00:34:06;;;;;;;0.00;0.00;;;;;;;;;;1725978;28;20280;-64
2023/12/17 00:34:57;;;;;;;0.00;0.00;;;;;;;;;;1725316;28;20687;-64
2023/12/17 00:35:48;;;;;;;0.00;0.00;;;;;;;;;;1724886;28;20654;-64
2023/12/17 00:36:40;;;;;;;0.00;0.00;;;;;;;;;;1725471;28;20669;-64
2023/12/17 00:37:32;;;;;;;0.00;0.00;;;;;;;;;;1725601;28;20212;-64
2023/12/17 00:38:23;;;;;;;0.00;0.00;;;;;;;;;;1725590;28;20212;-65
2023/12/17 00:39:15;;;;;;;0.00;0.00;;;;;;;;;;1726089;28;20265;-65
2023/12/17 00:40:07;;;;;;;0.00;0.00;;;;;;;;;;1725426;28;20212;-64
2023/12/17 00:40:58;;;;;;;0.00;0.00;;;;;;;;;;1724853;28;20327;-65
2023/12/17 00:41:50;;;;;;;0.00;0.00;;;;;;;;;;1725822;28;20201;-64
2023/12/17 00:42:41;;;;;;;0.00;0.00;;;;;;;;;;1725477;28;20254;-64
2023/12/17 00:43:32;;;;;;;0.00;0.00;;;;;;;;;;1726175;28;20216;-65
2023/12/17 00:44:24;;;;;;;0.00;0.00;;;;;;;;;;1727536;28;20678;-65
2023/12/17 00:45:15;;;;;;;0.00;0.00;;;;;;;;;;1725515;28;20610;-64
2023/12/17 00:46:07;;;;;;;0.00;0.00;;;;;;;;;;1727511;28;20211;-64
2023/12/17 00:46:59;;;;;;;0.00;0.00;;;;;;;;;;1726330;28;20220;-65
2023/12/17 00:47:50;;;;;;;0.00;0.00;;;;;;;;;;1725637;28;20275;-63
2023/12/17 00:48:42;;;;;;;0.00;0.00;;;;;;;;;;1725567;28;20244;-64
2023/12/17 00:49:33;;;;;;;0.00;0.00;;;;;;;;;;1725813;28;20258;-64
2023/12/17 00:50:25;;;;;;;0.00;0.00;;;;;;;;;;1724810;28;20572;-64
2023/12/17 00:51:16;;;;;;;0.00;0.00;;;;;;;;;;1725880;28;20200;-64
2023/12/17 00:52:07;;;;;;;0.00;0.00;;;;;;;;;;1725733;28;20684;-64
2023/12/17 00:53:00;;;;;;;0.00;0.00;;;;;;;;;;1725665;28;20270;-64
2023/12/17 00:53:52;;;;;;;0.00;0.00;;;;;;;;;;1726425;28;20208;-63
2023/12/17 00:54:43;;;;;;;0.00;0.00;;;;;;;;;;1725220;28;20261;-64
2023/12/17 00:55:34;;;;;;;0.00;0.00;;;;;;;;;;1724529;28;20208;-64
2023/12/17 00:56:26;;;;;;;0.00;0.00;;;;;;;;;;1725093;28;20205;-64
2023/12/17 00:57:17;;;;;;;0.00;0.00;;;;;;;;;;1725754;28;20729;-64
2023/12/17 00:58:09;;;;;;;0.00;0.00;;;;;;;;;;1725074;28;20236;-66
2023/12/17 00:59:00;;;;;;;0.00;0.00;;;;;;;;;;1725799;28;20253;-64
2023/12/17 00:59:51;;;;;;;0.10;0.10;;;;;;;;;;1725727;28;20606;-65
2023/12/17 01:00:43;;;;;;;0.00;0.00;;;;;;;;;;1724346;28;20618;-64
2023/12/17 01:01:35;;;;;;;0.00;0.00;;;;;;;;;;1725276;28;20219;-64
2023/12/17 01:02:27;;;;;;;0.00;0.00;;;;;;;;;;1725411;28;20207;-64
2023/12/17 01:03:18;;;;;;;0.00;0.00;;;;;;;;;;1722805;28;20663;-65
2023/12/17 01:04:09;;;;;;;0.10;0.10;;;;;;;;;;1725720;28;20626;-64
2023/12/17 01:05:01;;;;;;;0.00;0.00;;;;;;;;;;1724738;28;20670;-64
2023/12/17 01:05:52;;;;;;;0.00;0.00;;;;;;;;;;1723938;28;20239;-64
2023/12/17 01:06:43;;;;;;;0.00;0.00;;;;;;;;;;1724919;28;20227;-64
2023/12/17 01:07:35;;;;;;;0.00;0.00;;;;;;;;;;1725445;28;20343;-64
2023/12/17 01:08:27;;;;;;;0.00;0.00;;;;;;;;;;1725200;28;20304;-64
2023/12/17 01:09:19;;;;;;;0.00;0.00;;;;;;;;;;1721426;28;20779;-65
2023/12/17 01:10:10;;;;;;;0.00;0.00;;;;;;;;;;1724909;28;20262;-63
2023/12/17 01:11:02;;;;;;;0.00;0.00;;;;;;;;;;1724224;28;20239;-65
2023/12/17 01:11:54;;;;;;;0.00;0.00;;;;;;;;;;1725418;28;20718;-65
2023/12/17 01:12:45;;;;;;;0.00;0.00;;;;;;;;;;1725542;28;20209;-65
2023/12/17 01:13:37;;;;;;;0.00;0.00;;;;;;;;;;1724978;28;20288;-64
2023/12/17 01:14:32;;;;;;;0.00;0.00;;;;;;;;;;1725573;28;20208;-65
2023/12/17 01:15:23;;;;;;;0.00;0.00;;;;;;;;;;1724099;28;20201;-64
2023/12/17 01:16:15;;;;;;;0.00;0.00;;;;;;;;;;1725337;28;20205;-64
2023/12/17 01:17:07;;;;;;;0.00;0.00;;;;;;;;;;1724682;28;20728;-65
2023/12/17 01:17:59;;;;;;;0.00;0.00;;;;;;;;;;1724848;28;20306;-67
2023/12/17 01:18:50;;;;;;;0.00;0.00;;;;;;;;;;1725740;28;20252;-67
2023/12/17 01:19:41;;;;;;;0.00;0.00;;;;;;;;;;1724740;28;20204;-67
2023/12/17 01:20:33;;;;;;;0.00;0.00;;;;;;;;;;1724390;28;20255;-67
2023/12/17 01:21:24;;;;;;;0.00;0.00;;;;;;;;;;1724918;28;20274;-64
2023/12/17 01:22:15;;;;;;;0.10;0.10;;;;;;;;;;1725535;28;20208;-64
2023/12/17 01:23:07;;;;;;;0.00;0.00;;;;;;;;;;1724932;28;20307;-65
2023/12/17 01:23:59;;;;;;;0.00;0.00;;;;;;;;;;1725840;28;20578;-64
2023/12/17 01:24:54;;;;;;;0.00;0.00;;;;;;;;;;1721690;28;20266;-65
2023/12/17 01:25:46;;;;;;;0.00;0.00;;;;;;;;;;1724054;28;20715;-64
2023/12/17 01:26:37;;;;;;;0.00;0.00;;;;;;;;;;1724971;28;20208;-64
2023/12/17 01:27:28;;;;;;;0.00;0.00;;;;;;;;;;1727743;28;20254;-65
2023/12/17 01:28:20;;;;;;;0.00;0.00;;;;;;;;;;1738458;28;20294;-64
2023/12/17 01:29:11;;;;;;;0.00;0.00;;;;;;;;;;1738913;28;20280;-64
2023/12/17 01:30:02;;;;;;;0.00;0.00;;;;;;;;;;1738354;28;20547;-64
2023/12/17 01:30:54;;;;;;;0.00;0.00;;;;;;;;;;1738168;28;20226;-64
2023/12/17 01:31:45;;;;;;;0.00;0.00;;;;;;;;;;1738372;28;20207;-65
2023/12/17 01:32:36;;;;;;;0.00;0.00;;;;;;;;;;1738890;28;20712;-64
2023/12/17 01:33:28;;;;;;;0.00;0.00;;;;;;;;;;1738529;28;20743;-64
2023/12/17 01:34:20;;;;;;;0.00;0.00;;;;;;;;;;1738767;28;20260;-67
2023/12/17 01:35:11;;;;;;;0.00;0.00;;;;;;;;;;1737627;28;20230;-65
2023/12/17 01:36:03;;;;;;;0.00;0.00;;;;;;;;;;1737948;28;20242;-64
2023/12/17 01:36:55;;;;;;;0.00;0.00;;;;;;;;;;1738766;28;20245;-66
2023/12/17 01:37:47;;;;;;;0.00;0.00;;;;;;;;;;1738837;28;20761;-64
2023/12/17 01:38:39;;;;;;;0.00;0.00;;;;;;;;;;1738500;28;20293;-65
2023/12/17 01:39:31;;;;;;;0.10;0.10;;;;;;;;;;1738777;28;20352;-65
2023/12/17 01:40:23;;;;;;;0.00;0.00;;;;;;;;;;1737992;28;20210;-65
2023/12/17 01:41:14;;;;;;;0.00;0.00;;;;;;;;;;1731654;28;20628;-64
2023/12/17 01:42:05;;;;;;;0.00;0.00;;;;;;;;;;1730264;28;20211;-65
2023/12/17 01:42:57;;;;;;;0.00;0.00;;;;;;;;;;1732132;28;20711;-65
2023/12/17 01:43:48;;;;;;;0.00;0.00;;;;;;;;;;1732056;28;20306;-64
2023/12/17 01:44:41;;;;;;;0.00;0.00;;;;;;;;;;1731623;28;20212;-66
2023/12/17 01:45:32;;;;;;;0.00;0.00;;;;;;;;;;1733671;28;20245;-64
2023/12/17 01:46:23;;;;;;;0.00;0.00;;;;;;;;;;1738346;28;20672;-65
2023/12/17 01:47:15;;;;;;;0.00;0.00;;;;;;;;;;1738879;28;20732;-65
2023/12/17 01:48:06;;;;;;;0.00;0.00;;;;;;;;;;1737945;28;20846;-65
2023/12/17 01:48:58;;;;;;;0.00;0.00;;;;;;;;;;1738860;28;20475;-65
2023/12/17 01:49:50;;;;;;;0.00;0.00;;;;;;;;;;1738298;28;20268;-65
2023/12/17 01:50:41;;;;;;;0.00;0.00;;;;;;;;;;1737517;28;20250;-64
2023/12/17 01:51:33;;;;;;;0.00;0.00;;;;;;;;;;1738472;28;20210;-64
2023/12/17 01:52:24;;;;;;;0.00;0.00;;;;;;;;;;1738868;28;20564;-64
2023/12/17 01:53:16;;;;;;;0.00;0.00;;;;;;;;;;1738471;28;20207;-65
2023/12/17 01:54:08;;;;;;;0.00;0.00;;;;;;;;;;1738883;28;20684;-64
2023/12/17 01:55:00;;;;;;;0.00;0.00;;;;;;;;;;1738599;28;20215;-64
2023/12/17 01:55:51;;;;;;;0.00;0.00;;;;;;;;;;1737585;28;20245;-64
2023/12/17 01:56:43;;;;;;;0.00;0.00;;;;;;;;;;1738194;28;20198;-64
2023/12/17 01:57:35;;;;;;;0.00;0.00;;;;;;;;;;1738830;28;20206;-64
2023/12/17 01:58:27;;;;;;;0.00;0.00;;;;;;;;;;1738195;28;20285;-64
2023/12/17 01:59:18;;;;;;;0.00;0.00;;;;;;;;;;1734105;28;20283;-65
2023/12/17 02:00:09;;;;;;;0.00;0.00;;;;;;;;;;1738124;28;20221;-64
2023/12/17 02:01:03;;;;;;;0.00;0.00;;;;;;;;;;1737966;28;20240;-64
2023/12/17 02:01:54;;;;;;;0.00;0.00;;;;;;;;;;1738213;28;20233;-64
2023/12/17 02:02:45;;;;;;;0.00;0.00;;;;;;;;;;1738681;28;20203;-64
2023/12/17 02:03:37;;;;;;;0.00;0.00;;;;;;;;;;1738074;28;20206;-65
2023/12/17 02:04:28;;;;;;;0.00;0.00;;;;;;;;;;1738691;28;20206;-65
2023/12/17 02:05:19;;;;;;;0.00;0.00;;;;;;;;;;1737227;28;20206;-63
2023/12/17 02:06:11;;;;;;;0.00;0.00;;;;;;;;;;1738799;28;20206;-64
2023/12/17 02:07:02;;;;;;;0.00;0.00;;;;;;;;;;1738292;28;20272;-64
2023/12/17 02:07:53;;;;;;;0.00;0.00;;;;;;;;;;1735318;28;20222;-64
2023/12/17 02:08:45;;;;;;;0.00;0.00;;;;;;;;;;1738604;28;20203;-64
2023/12/17 02:09:36;;;;;;;0.00;0.00;;;;;;;;;;1738018;28;20276;-64
2023/12/17 02:10:29;;;;;;;0.00;0.00;;;;;;;;;;1737566;28;20203;-63
2023/12/17 02:11:21;;;;;;;0.00;0.00;;;;;;;;;;1738390;28;20195;-64
2023/12/17 02:12:15;;;;;;;0.00;0.00;;;;;;;;;;1737888;28;20245;-64
2023/12/17 02:13:09;;;;;;;0.00;0.00;;;;;;;;;;1738240;28;20586;-63
2023/12/17 02:14:00;;;;;;;0.00;0.00;;;;;;;;;;1739115;28;20207;-64
2023/12/17 02:14:52;;;;;;;0.00;0.00;;;;;;;;;;1738222;28;20294;-64
2023/12/17 02:15:43;;;;;;;0.00;0.00;;;;;;;;;;1737168;28;20235;-64
2023/12/17 02:16:34;;;;;;;0.00;0.00;;;;;;;;;;1738246;28;20713;-64
2023/12/17 02:17:28;;;;;;;0.00;0.00;;;;;;;;;;1738235;28;21062;-65
2023/12/17 02:18:19;;;;;;;0.00;0.00;;;;;;;;;;1735528;28;20261;-64
2023/12/17 02:19:11;;;;;;;0.00;0.00;;;;;;;;;;1738679;28;20593;-64
2023/12/17 02:20:02;;;;;;;0.00;0.00;;;;;;;;;;1738379;28;20263;-64
2023/12/17 02:20:54;;;;;;;0.00;0.00;;;;;;;;;;1737485;28;20230;-64
2023/12/17 02:21:46;;;;;;;0.00;0.00;;;;;;;;;;1738009;28;20218;-65
2023/12/17 02:22:38;;;;;;;0.00;0.00;;;;;;;;;;1738778;28;20244;-65
2023/12/17 02:23:30;;;;;;;0.00;0.00;;;;;;;;;;1738173;28;20918;-64
2023/12/17 02:24:22;;;;;;;0.10;0.10;;;;;;;;;;1738478;28;20299;-63
2023/12/17 02:25:13;;;;;;;0.00;0.00;;;;;;;;;;1737479;28;20271;-64
2023/12/17 02:26:04;;;;;;;0.00;0.00;;;;;;;;;;1738099;28;20676;-64
2023/12/17 02:26:57;;;;;;;0.00;0.00;;;;;;;;;;1738426;28;20659;-64
2023/12/17 02:27:48;;;;;;;0.00;0.00;;;;;;;;;;1737006;28;20238;-65
2023/12/17 02:28:39;;;;;;;0.00;0.00;;;;;;;;;;1738193;28;20265;-65
2023/12/17 02:29:31;;;;;;;0.00;0.00;;;;;;;;;;1738509;28;20712;-64
2023/12/17 02:30:22;;;;;;;0.00;0.00;;;;;;;;;;1736977;28;20560;-64
2023/12/17 02:31:13;;;;;;;0.00;0.00;;;;;;;;;;1738503;28;20568;-65
2023/12/17 02:32:05;;;;;;;0.00;0.00;;;;;;;;;;1738724;28;20222;-64
2023/12/17 02:32:56;;;;;;;0.00;0.00;;;;;;;;;;1735597;28;20214;-64
2023/12/17 02:33:48;;;;;;;0.00;0.00;;;;;;;;;;1738614;28;20203;-63
2023/12/17 02:34:39;;;;;;;0.00;0.00;;;;;;;;;;1737852;28;20354;-65
2023/12/17 02:35:31;;;;;;;0.00;0.00;;;;;;;;;;1737464;28;20346;-64
2023/12/17 02:36:22;;;;;;;0.00;0.00;;;;;;;;;;1738113;28;20678;-64
2023/12/17 02:37:13;;;;;;;0.00;0.00;;;;;;;;;;1737758;28;20622;-65
2023/12/17 02:38:05;;;;;;;0.00;0.00;;;;;;;;;;1733259;28;20797;-65
2023/12/17 02:38:58;;;;;;;0.00;0.00;;;;;;;;;;1734078;28;20199;-64
2023/12/17 02:39:49;;;;;;;0.00;0.00;;;;;;;;;;1735802;28;20250;-64
2023/12/17 02:40:41;;;;;;;0.00;0.00;;;;;;;;;;1737240;28;20227;-64
2023/12/17 02:41:32;;;;;;;0.00;0.00;;;;;;;;;;1738160;28;20300;-64
2023/12/17 02:42:23;;;;;;;0.00;0.00;;;;;;;;;;1736397;28;20203;-65
2023/12/17 02:43:15;;;;;;;0.00;0.00;;;;;;;;;;1738319;28;20345;-65
2023/12/17 02:44:06;;;;;;;0.00;0.00;;;;;;;;;;1738639;28;20553;-63
2023/12/17 02:44:58;;;;;;;0.00;0.00;;;;;;;;;;1738046;28;20203;-65
2023/12/17 02:45:49;;;;;;;0.03;0.03;;;;;;;;;;1737324;28;20242;-65
2023/12/17 02:46:41;;;;;;;0.00;0.00;;;;;;;;;;1737998;28;20203;-64
2023/12/17 02:47:32;;;;;;;0.00;0.00;;;;;;;;;;1738334;28;20736;-64
2023/12/17 02:48:23;;;;;;;0.00;0.00;;;;;;;;;;1737933;28;20720;-64
2023/12/17 02:49:15;;;;;;;0.00;0.00;;;;;;;;;;1738231;28;20705;-65
2023/12/17 02:50:06;;;;;;;0.00;0.00;;;;;;;;;;1738150;28;20321;-65
2023/12/17 02:50:58;;;;;;;0.00;0.00;;;;;;;;;;1737552;28;20247;-64
2023/12/17 02:51:50;;;;;;;0.00;0.00;;;;;;;;;;1738042;28;20715;-64
2023/12/17 02:52:41;;;;;;;0.00;0.00;;;;;;;;;;1738491;28;20209;-64
2023/12/17 02:53:33;;;;;;;0.00;0.00;;;;;;;;;;1737942;28;20210;-64
2023/12/17 02:54:25;;;;;;;0.00;0.00;;;;;;;;;;1738637;28;20210;-64
2023/12/17 02:55:16;;;;;;;0.00;0.00;;;;;;;;;;1737258;28;20230;-66
2023/12/17 02:56:09;;;;;;;0.00;0.00;;;;;;;;;;1738119;28;20397;-63
2023/12/17 02:57:00;;;;;;;0.00;0.00;;;;;;;;;;1738157;28;20628;-64
2023/12/17 02:57:51;;;;;;;0.00;0.00;;;;;;;;;;1738362;28;20284;-64
2023/12/17 02:58:43;;;;;;;0.00;0.00;;;;;;;;;;1738219;28;20352;-64
2023/12/17 02:59:34;;;;;;;0.00;0.00;;;;;;;;;;1738233;28;20244;-64
2023/12/17 03:00:25;;;;;;;0.00;0.00;;;;;;;;;;1737316;28;20233;-65
2023/12/17 03:01:17;;;;;;;0.00;0.00;;;;;;;;;;1738008;28;20321;-65
2023/12/17 03:02:08;;;;;;;0.00;0.00;;;;;;;;;;1738541;28;20276;-63
2023/12/17 03:02:59;;;;;;;0.00;0.00;;;;;;;;;;1738601;28;20198;-65
2023/12/17 03:03:51;;;;;;;0.00;0.00;;;;;;;;;;1738250;28;20206;-65
2023/12/17 03:04:42;;;;;;;0.00;0.00;;;;;;;;;;1737953;28;20215;-64
2023/12/17 03:05:34;;;;;;;0.00;0.00;;;;;;;;;;1737302;28;20242;-64
2023/12/17 03:06:25;;;;;;;0.00;0.00;;;;;;;;;;1738120;28;20238;-64
2023/12/17 03:07:16;;;;;;;0.00;0.00;;;;;;;;;;1738417;28;20250;-64
2023/12/17 03:08:08;;;;;;;0.00;0.00;;;;;;;;;;1738106;28;20240;-64
2023/12/17 03:08:59;;;;;;;0.10;0.10;;;;;;;;;;1736494;28;20845;-64
2023/12/17 03:09:54;;;;;;;0.00;0.00;;;;;;;;;;1737732;28;20928;-65
2023/12/17 03:10:46;;;;;;;0.17;0.17;;;;;;;;;;1737225;28;20714;-64
2023/12/17 03:11:37;;;;;;;0.00;0.00;;;;;;;;;;1737779;28;20662;-65
2023/12/17 03:12:28;;;;;;;0.00;0.00;;;;;;;;;;1738548;28;20207;-65
2023/12/17 03:13:20;;;;;;;0.00;0.00;;;;;;;;;;1738253;28;20440;-64
2023/12/17 03:14:11;;;;;;;0.00;0.00;;;;;;;;;;1738233;28;20214;-64
2023/12/17 03:15:02;;;;;;;0.00;0.00;;;;;;;;;;1738326;28;20662;-65
2023/12/17 03:15:54;;;;;;;0.00;0.00;;;;;;;;;;1737001;28;20227;-65
2023/12/17 03:16:45;;;;;;;0.00;0.00;;;;;;;;;;1737957;28;20207;-65
2023/12/17 03:17:37;;;;;;;0.00;0.00;;;;;;;;;;1738104;28;20233;-64
2023/12/17 03:18:28;;;;;;;0.00;0.00;;;;;;;;;;1737440;28;20698;-65
2023/12/17 03:19:20;;;;;;;0.00;0.00;;;;;;;;;;1738654;28;20214;-65
2023/12/17 03:20:11;;;;;;;0.00;0.00;;;;;;;;;;1738782;28;20215;-64
2023/12/17 03:21:03;;;;;;;0.00;0.00;;;;;;;;;;1738918;28;20696;-64
2023/12/17 03:21:54;;;;;;;0.00;0.00;;;;;;;;;;1738930;28;20215;-64
2023/12/17 03:22:45;;;;;;;0.00;0.00;;;;;;;;;;1739519;28;20207;-64
2023/12/17 03:23:37;;;;;;;0.00;0.00;;;;;;;;;;1738066;28;20207;-64
2023/12/17 03:24:28;;;;;;;0.00;0.00;;;;;;;;;;1738552;28;22384;-64
2023/12/17 03:25:22;;;;;;;0.00;0.00;;;;;;;;;;1737156;28;20290;-64
2023/12/17 03:26:13;;;;;;;0.00;0.00;;;;;;;;;;1737986;28;20207;-64
2023/12/17 03:27:04;;;;;;;0.00;0.00;;;;;;;;;;1738344;28;20203;-64
2023/12/17 03:27:56;;;;;;;0.00;0.00;;;;;;;;;;1736906;28;20628;-64
2023/12/17 03:28:47;;;;;;;0.00;0.00;;;;;;;;;;1738412;28;20291;-64
2023/12/17 03:29:38;;;;;;;0.00;0.00;;;;;;;;;;1739432;28;20249;-65
2023/12/17 03:30:30;;;;;;;0.00;0.00;;;;;;;;;;1738516;28;20252;-65
2023/12/17 03:31:21;;;;;;;0.00;0.00;;;;;;;;;;1739585;28;20339;-65
2023/12/17 03:32:14;;;;;;;0.00;0.00;;;;;;;;;;1739253;28;20210;-64
2023/12/17 03:33:06;;;;;;;0.00;0.00;;;;;;;;;;1739641;28;20202;-65
2023/12/17 03:33:57;;;;;;;0.00;0.00;;;;;;;;;;1740231;28;20237;-64
2023/12/17 03:34:48;;;;;;;0.00;0.00;;;;;;;;;;1739096;28;20214;-65
2023/12/17 03:35:40;;;;;;;0.00;0.00;;;;;;;;;;1738831;28;20202;-64
2023/12/17 03:36:31;;;;;;;0.00;0.00;;;;;;;;;;1739380;28;20206;-64
2023/12/17 03:37:22;;;;;;;0.00;0.00;;;;;;;;;;1739911;28;20250;-65
2023/12/17 03:38:14;;;;;;;0.00;0.00;;;;;;;;;;1739503;28;20296;-64
2023/12/17 03:39:06;;;;;;;0.00;0.00;;;;;;;;;;1740368;28;20751;-65
2023/12/17 03:39:57;;;;;;;0.00;0.00;;;;;;;;;;1739636;28;20578;-64
2023/12/17 03:40:50;;;;;;;0.00;0.00;;;;;;;;;;1738870;28;20222;-64
2023/12/17 03:41:41;;;;;;;0.00;0.00;;;;;;;;;;1739913;28;20260;-64
2023/12/17 03:42:32;;;;;;;0.00;0.00;;;;;;;;;;1737365;28;20252;-65
2023/12/17 03:43:24;;;;;;;0.00;0.00;;;;;;;;;;1739501;28;20293;-64
2023/12/17 03:44:15;;;;;;;0.00;0.00;;;;;;;;;;1740070;28;20264;-64
2023/12/17 03:45:08;;;;;;;0.00;0.00;;;;;;;;;;1739781;28;20219;-65
2023/12/17 03:45:59;;;;;;;0.00;0.00;;;;;;;;;;1739066;28;20283;-67
2023/12/17 03:46:51;;;;;;;0.00;0.00;;;;;;;;;;1739501;28;20210;-65
2023/12/17 03:47:42;;;;;;;0.00;0.00;;;;;;;;;;1739434;28;20329;-66
2023/12/17 03:48:33;;;;;;;0.00;0.00;;;;;;;;;;1739376;28;20230;-64
2023/12/17 03:49:25;;;;;;;0.00;0.00;;;;;;;;;;1739901;28;20203;-64
2023/12/17 03:50:17;;;;;;;0.00;0.00;;;;;;;;;;1738324;28;20296;-65
2023/12/17 03:51:08;;;;;;;0.00;0.00;;;;;;;;;;1740320;28;20616;-64
2023/12/17 03:52:00;;;;;;;0.00;0.00;;;;;;;;;;1739290;28;20260;-64
2023/12/17 03:52:51;;;;;;;0.00;0.00;;;;;;;;;;1739780;28;20290;-64
2023/12/17 03:53:42;;;;;;;0.00;0.00;;;;;;;;;;1739429;28;20202;-64
2023/12/17 03:54:34;;;;;;;0.00;0.00;;;;;;;;;;1739663;28;20203;-66
2023/12/17 03:55:25;;;;;;;0.00;0.00;;;;;;;;;;1738334;28;20210;-64
2023/12/17 03:56:17;;;;;;;0.00;0.00;;;;;;;;;;1739298;28;20207;-66
2023/12/17 03:57:09;;;;;;;0.00;0.00;;;;;;;;;;1739964;28;20231;-64
2023/12/17 03:58:00;;;;;;;0.00;0.00;;;;;;;;;;1738836;28;20749;-63
2023/12/17 03:58:51;;;;;;;0.00;0.00;;;;;;;;;;1738430;28;20686;-63
2023/12/17 03:59:43;;;;;;;0.00;0.00;;;;;;;;;;1738986;28;20606;-63
2023/12/17 04:00:34;;;;;;;0.00;0.00;;;;;;;;;;1738543;28;20226;-63
2023/12/17 04:01:25;;;;;;;0.00;0.00;;;;;;;;;;1739216;28;20191;-64
2023/12/17 04:02:18;;;;;;;0.00;0.00;;;;;;;;;;1739442;28;20301;-64
2023/12/17 04:03:09;;;;;;;0.00;0.00;;;;;;;;;;1739356;28;20249;-64
2023/12/17 04:04:00;;;;;;;0.00;0.00;;;;;;;;;;1739528;28;20218;-65
2023/12/17 04:04:52;;;;;;;0.00;0.00;;;;;;;;;;1738950;28;20225;-64
2023/12/17 04:05:43;;;;;;;0.00;0.00;;;;;;;;;;1738425;28;20230;-62
2023/12/17 04:06:35;;;;;;;0.00;0.00;;;;;;;;;;1739180;28;21149;-64
2023/12/17 04:07:27;;;;;;;0.00;0.00;;;;;;;;;;1739596;28;20203;-63
2023/12/17 04:08:18;;;;;;;0.00;0.00;;;;;;;;;;1736378;28;20241;-64
2023/12/17 04:09:10;;;;;;;0.00;0.00;;;;;;;;;;1740134;28;20755;-64
2023/12/17 04:10:02;;;;;;;0.00;0.00;;;;;;;;;;1738946;28;20238;-64
2023/12/17 04:10:53;;;;;;;0.00;0.00;;;;;;;;;;1738567;28;20274;-63
2023/12/17 04:11:46;;;;;;;0.00;0.00;;;;;;;;;;1739156;28;20322;-65
2023/12/17 04:12:37;;;;;;;0.00;0.00;;;;;;;;;;1739386;28;20293;-63
2023/12/17 04:13:28;;;;;;;0.00;0.00;;;;;;;;;;1739122;28;20199;-64
2023/12/17 04:14:20;;;;;;;0.00;0.00;;;;;;;;;;1739628;28;20199;-64
2023/12/17 04:15:11;;;;;;;0.00;0.00;;;;;;;;;;1739256;28;20226;-63
2023/12/17 04:16:02;;;;;;;0.00;0.00;;;;;;;;;;1738342;28;20234;-63
2023/12/17 04:16:54;;;;;;;0.00;0.00;;;;;;;;;;1739010;28;20215;-64
2023/12/17 04:17:45;;;;;;;0.00;0.00;;;;;;;;;;1739099;28;20280;-63
2023/12/17 04:18:37;;;;;;;0.00;0.00;;;;;;;;;;1738910;28;20203;-65
2023/12/17 04:19:29;;;;;;;0.00;0.00;;;;;;;;;;1739527;28;20199;-64
2023/12/17 04:20:20;;;;;;;0.00;0.00;;;;;;;;;;1737853;28;20236;-64
2023/12/17 04:21:12;;;;;;;0.00;0.00;;;;;;;;;;1739856;28;20268;-63
2023/12/17 04:22:03;;;;;;;0.00;0.00;;;;;;;;;;1739518;28;20614;-64
2023/12/17 04:22:54;;;;;;;0.00;0.00;;;;;;;;;;1738924;28;20249;-64
2023/12/17 04:23:46;;;;;;;0.00;0.00;;;;;;;;;;1739406;28;20206;-64
2023/12/17 04:24:37;;;;;;;0.00;0.00;;;;;;;;;;1739007;28;20631;-64
2023/12/17 04:25:29;;;;;;;0.00;0.00;;;;;;;;;;1738230;28;20203;-64
2023/12/17 04:26:20;;;;;;;0.00;0.00;;;;;;;;;;1739151;28;20195;-64
2023/12/17 04:27:14;;;;;;;0.00;0.00;;;;;;;;;;1738605;28;20211;-64
2023/12/17 04:28:05;;;;;;;0.00;0.00;;;;;;;;;;1738279;28;20505;-64
2023/12/17 04:28:57;;;;;;;0.00;0.00;;;;;;;;;;1739299;28;20211;-63
2023/12/17 04:29:48;;;;;;;0.00;0.00;;;;;;;;;;1739100;28;20211;-63
2023/12/17 04:30:40;;;;;;;0.00;0.00;;;;;;;;;;1738247;28;20233;-65
2023/12/17 04:31:31;;;;;;;0.00;0.00;;;;;;;;;;1738984;28;20606;-65
2023/12/17 04:32:22;;;;;;;0.00;0.00;;;;;;;;;;1739388;28;20362;-66
2023/12/17 04:33:14;;;;;;;0.00;0.00;;;;;;;;;;1739273;28;20302;-63
2023/12/17 04:34:05;;;;;;;0.00;0.00;;;;;;;;;;1738177;28;20727;-63
2023/12/17 04:34:57;;;;;;;0.00;0.00;;;;;;;;;;1738640;28;20246;-64
2023/12/17 04:35:49;;;;;;;0.00;0.00;;;;;;;;;;1738330;28;20241;-66
2023/12/17 04:36:42;;;;;;;0.00;0.00;;;;;;;;;;1738850;28;20203;-63
2023/12/17 04:37:33;;;;;;;0.00;0.00;;;;;;;;;;1739104;28;20806;-66
2023/12/17 04:38:24;;;;;;;0.00;0.00;;;;;;;;;;1738886;28;20214;-64
2023/12/17 04:39:16;;;;;;;0.00;0.00;;;;;;;;;;1739292;28;20202;-65
2023/12/17 04:40:08;;;;;;;0.00;0.00;;;;;;;;;;1738846;28;20722;-63
2023/12/17 04:40:59;;;;;;;0.00;0.00;;;;;;;;;;1737537;28;20249;-64
2023/12/17 04:41:51;;;;;;;0.00;0.00;;;;;;;;;;1738641;28;20314;-64
2023/12/17 04:42:43;;;;;;;0.00;0.00;;;;;;;;;;1736133;28;20719;-64
2023/12/17 04:43:35;;;;;;;0.00;0.00;;;;;;;;;;1738567;28;20267;-64
2023/12/17 04:44:26;;;;;;;0.00;0.00;;;;;;;;;;1739523;28;20206;-64
2023/12/17 04:45:17;;;;;;;0.00;0.00;;;;;;;;;;1737920;28;20272;-64
2023/12/17 04:46:09;;;;;;;0.00;0.00;;;;;;;;;;1739304;28;20592;-65
2023/12/17 04:47:00;;;;;;;0.00;0.00;;;;;;;;;;1739002;28;20684;-64
2023/12/17 04:47:52;;;;;;;0.00;0.00;;;;;;;;;;1738381;28;20222;-64
2023/12/17 04:48:43;;;;;;;0.00;0.00;;;;;;;;;;1738632;28;20241;-64
2023/12/17 04:49:35;;;;;;;0.00;0.00;;;;;;;;;;1738701;28;20202;-64
2023/12/17 04:50:27;;;;;;;0.00;0.00;;;;;;;;;;1737973;28;20293;-65
2023/12/17 04:51:18;;;;;;;0.00;0.00;;;;;;;;;;1733692;28;20196;-65
2023/12/17 04:52:09;;;;;;;0.00;0.00;;;;;;;;;;1739270;28;20211;-63
2023/12/17 04:53:01;;;;;;;0.00;0.00;;;;;;;;;;1739039;28;20643;-65
2023/12/17 04:53:52;;;;;;;0.00;0.00;;;;;;;;;;1737416;28;20207;-65
2023/12/17 04:54:44;;;;;;;0.00;0.00;;;;;;;;;;1738861;28;20207;-64
2023/12/17 04:55:35;;;;;;;0.00;0.00;;;;;;;;;;1738076;28;20704;-64
2023/12/17 04:56:26;;;;;;;0.00;0.00;;;;;;;;;;1738603;28;20521;-64
2023/12/17 04:57:18;;;;;;;0.00;0.00;;;;;;;;;;1736399;28;20261;-63
2023/12/17 04:58:11;;;;;;;0.10;0.10;;;;;;;;;;1738828;28;20288;-64
2023/12/17 04:59:03;;;;;;;0.00;0.00;;;;;;;;;;1739242;28;20219;-64
2023/12/17 04:59:56;;;;;;;0.00;0.00;;;;;;;;;;1738614;28;20215;-64
2023/12/17 05:00:47;;;;;;;0.00;0.00;;;;;;;;;;1738010;28;20230;-64
2023/12/17 05:01:39;;;;;;;0.00;0.00;;;;;;;;;;1738652;28;20540;-65
2023/12/17 05:02:30;;;;;;;0.00;0.00;;;;;;;;;;1738912;28;20269;-64
2023/12/17 05:03:21;;;;;;;0.00;0.00;;;;;;;;;;1738809;28;20207;-64
2023/12/17 05:04:13;;;;;;;0.00;0.00;;;;;;;;;;1739405;28;20346;-64
2023/12/17 05:05:05;;;;;;;0.00;0.00;;;;;;;;;;1738504;28;20751;-63
2023/12/17 05:05:57;;;;;;;0.00;0.00;;;;;;;;;;1737968;28;20231;-65
2023/12/17 05:06:48;;;;;;;0.00;0.00;;;;;;;;;;1738509;28;20279;-64
2023/12/17 05:07:39;;;;;;;0.00;0.00;;;;;;;;;;1739166;28;20211;-63
2023/12/17 05:08:31;;;;;;;0.00;0.00;;;;;;;;;;1738455;28;20340;-63
2023/12/17 05:09:22;;;;;;;0.00;0.00;;;;;;;;;;1739408;28;20834;-64